Time;durP1;ratioP1;P1;durP2;ratioP2;P2;SDS_P1;SDS_P2;PMS_P1;PMS_P2;Temp;Humidity;BMP_temperature;BMP_pressure;BME280_temperature;BME280_humidity;BME280_pressure;Samples;Min_cycle;Max_cycle;Signal;HPM_P1;HPM_P2
2024/01/08 00:01:07;;;;;;;;;;;2.90;99.90;;;;;;5058763;28;20424;-64
2024/01/08 00:03:33;;;;;;;;;;;2.90;99.90;;;;;;5062604;28;25054;-64
2024/01/08 00:06:01;;;;;;;;;;;2.90;99.90;;;;;;5063413;28;19962;-64
2024/01/08 00:08:27;;;;;;;;;;;2.90;99.90;;;;;;5060889;28;25140;-65
2024/01/08 00:10:54;;;;;;;;;;;2.80;99.90;;;;;;5063381;28;19982;-65
2024/01/08 00:13:20;;;;;;;;;;;2.80;99.90;;;;;;5061249;28;20617;-64
2024/01/08 00:15:47;;;;;;;;;;;2.80;99.90;;;;;;5059990;28;20193;-65
2024/01/08 00:18:13;;;;;;;;;;;2.80;99.90;;;;;;5056078;28;25063;-64
2024/01/08 00:20:39;;;;;;;;;;;2.80;99.90;;;;;;5061060;28;19979;-65
2024/01/08 00:23:07;;;;;;;;;;;2.80;99.90;;;;;;5062282;28;20120;-64
2024/01/08 00:25:33;;;;;;;;;;;2.80;99.90;;;;;;5060929;28;20122;-65
2024/01/08 00:28:00;;;;;;;;;;;2.80;99.90;;;;;;5056741;28;20040;-64
2024/01/08 00:30:27;;;;;;;;;;;2.70;99.90;;;;;;5056637;28;20165;-64
2024/01/08 00:32:53;;;;;;;;;;;2.80;99.90;;;;;;5059581;28;25081;-64
2024/01/08 00:35:20;;;;;;;;;;;2.70;99.90;;;;;;5057745;28;20839;-65
2024/01/08 00:37:46;;;;;;;;;;;2.70;99.90;;;;;;5058803;28;20160;-65
2024/01/08 00:40:14;;;;;;;;;;;2.70;99.90;;;;;;5061021;28;20081;-65
2024/01/08 00:42:41;;;;;;;;;;;2.70;99.90;;;;;;5060397;28;25070;-65
2024/01/08 00:45:08;;;;;;;;;;;2.70;99.90;;;;;;5061060;28;20002;-64
2024/01/08 00:47:34;;;;;;;;;;;2.70;99.90;;;;;;5060940;28;20181;-65
2024/01/08 00:50:01;;;;;;;;;;;2.70;99.90;;;;;;5059669;28;25149;-65
2024/01/08 00:52:27;;;;;;;;;;;2.70;99.90;;;;;;5062252;28;20017;-65
2024/01/08 00:54:54;;;;;;;;;;;2.70;99.90;;;;;;5059345;28;20064;-65
2024/01/08 00:57:22;;;;;;;;;;;2.70;99.90;;;;;;5057672;28;20193;-65
2024/01/08 00:59:48;;;;;;;;;;;2.60;99.90;;;;;;5061322;28;25084;-65
2024/01/08 01:02:15;;;;;;;;;;;2.60;99.90;;;;;;5063461;28;20008;-65
2024/01/08 01:04:41;;;;;;;;;;;2.60;99.90;;;;;;5064268;28;20169;-65
2024/01/08 01:07:08;;;;;;;;;;;2.60;99.90;;;;;;5063570;28;20299;-64
2024/01/08 01:09:34;;;;;;;;;;;2.60;99.90;;;;;;5062430;28;19932;-63
2024/01/08 01:12:01;;;;;;;;;;;2.60;99.90;;;;;;5065427;28;20383;-64
2024/01/08 01:14:29;;;;;;;;;;;2.60;99.90;;;;;;5064442;28;19930;-65
2024/01/08 01:16:56;;;;;;;;;;;2.60;99.90;;;;;;5063426;28;19928;-65
2024/01/08 01:19:22;;;;;;;;;;;2.60;99.90;;;;;;5065424;28;20614;-65
2024/01/08 01:21:49;;;;;;;;;;;2.60;99.90;;;;;;5064726;28;19928;-64
2024/01/08 01:24:15;;;;;;;;;;;2.60;99.90;;;;;;5062767;28;19928;-66
2024/01/08 01:26:42;;;;;;;;;;;2.60;99.90;;;;;;5063404;28;19958;-65
2024/01/08 01:29:08;;;;;;;;;;;2.60;99.90;;;;;;5066878;28;19924;-64
2024/01/08 01:31:36;;;;;;;;;;;2.50;99.90;;;;;;5063982;28;19998;-63
2024/01/08 01:34:05;;;;;;;;;;;2.60;99.90;;;;;;5061748;28;19974;-65
2024/01/08 01:36:35;;;;;;;;;;;2.50;99.90;;;;;;5062294;28;19929;-65
2024/01/08 01:39:01;;;;;;;;;;;2.50;99.90;;;;;;5062057;28;20485;-64
2024/01/08 01:41:28;;;;;;;;;;;2.50;99.90;;;;;;5064263;28;20438;-65
2024/01/08 01:43:54;;;;;;;;;;;2.60;99.90;;;;;;5063930;28;19932;-62
2024/01/08 01:46:24;;;;;;;;;;;2.50;99.90;;;;;;5061964;28;19932;-65
2024/01/08 01:48:52;;;;;;;;;;;2.50;99.90;;;;;;5065182;28;20414;-65
2024/01/08 01:51:18;;;;;;;;;;;2.50;99.90;;;;;;5064247;28;19932;-64
2024/01/08 01:53:45;;;;;;;;;;;2.50;99.90;;;;;;5063156;28;19977;-64
2024/01/08 01:56:12;;;;;;;;;;;2.50;99.90;;;;;;5058687;28;19981;-65
2024/01/08 01:58:39;;;;;;;;;;;2.50;99.90;;;;;;5057913;28;19928;-64
2024/01/08 02:01:05;;;;;;;;;;;2.50;99.90;;;;;;5062291;28;19920;-65
2024/01/08 02:03:32;;;;;;;;;;;2.50;99.90;;;;;;5062750;28;20460;-65
2024/01/08 02:06:00;;;;;;;;;;;2.50;99.90;;;;;;5061415;28;19985;-63
2024/01/08 02:08:27;;;;;;;;;;;2.50;99.90;;;;;;5059698;28;20413;-63
2024/01/08 02:10:55;;;;;;;;;;;2.50;99.90;;;;;;5063764;28;19928;-65
2024/01/08 02:13:22;;;;;;;;;;;2.50;99.90;;;;;;5062280;28;20553;-65
2024/01/08 02:15:49;;;;;;;;;;;2.50;99.90;;;;;;5062219;28;19962;-65
2024/01/08 02:18:15;;;;;;;;;;;2.40;99.90;;;;;;5060123;28;19964;-64
2024/01/08 02:20:42;;;;;;;;;;;2.40;99.90;;;;;;5063850;28;19932;-64
2024/01/08 02:23:09;;;;;;;;;;;2.40;99.90;;;;;;5060648;28;20390;-64
2024/01/08 02:25:36;;;;;;;;;;;2.40;99.90;;;;;;5061514;28;19924;-64
2024/01/08 02:28:03;;;;;;;;;;;2.40;99.90;;;;;;5062343;28;19928;-64
2024/01/08 02:30:29;;;;;;;;;;;2.40;99.90;;;;;;5062453;28;19929;-64
2024/01/08 02:32:56;;;;;;;;;;;2.40;99.90;;;;;;5058797;28;20065;-65
2024/01/08 02:35:22;;;;;;;;;;;2.40;99.90;;;;;;5061987;28;19936;-63
2024/01/08 02:37:49;;;;;;;;;;;2.40;99.90;;;;;;5060955;28;19985;-64
2024/01/08 02:40:16;;;;;;;;;;;2.40;99.90;;;;;;5061209;28;19931;-64
2024/01/08 02:42:43;;;;;;;;;;;2.40;99.90;;;;;;5062056;28;20418;-64
2024/01/08 03:00:54;;;;;;;;;;;2.30;99.90;;;;;;5046592;28;19927;-64
2024/01/08 03:03:20;;;;;;;;;;;2.40;99.90;;;;;;5058669;28;20452;-64
2024/01/08 03:05:47;;;;;;;;;;;2.30;99.90;;;;;;5059739;28;19924;-65
2024/01/08 03:08:13;;;;;;;;;;;2.30;99.90;;;;;;5054699;28;19920;-64
2024/01/08 03:10:40;;;;;;;;;;;2.30;99.90;;;;;;5061411;28;19920;-65
2024/01/08 03:13:06;;;;;;;;;;;2.40;99.90;;;;;;5059435;28;19940;-64
2024/01/08 03:15:33;;;;;;;;;;;2.30;99.90;;;;;;5059999;28;21468;-65
2024/01/08 03:18:00;;;;;;;;;;;2.30;99.90;;;;;;5060528;28;19975;-64
2024/01/08 03:20:27;;;;;;;;;;;2.20;99.90;;;;;;5063618;28;19928;-65
2024/01/08 03:22:53;;;;;;;;;;;2.30;99.90;;;;;;5060423;28;20627;-65
2024/01/08 03:25:20;;;;;;;;;;;2.30;99.90;;;;;;5060751;28;19921;-65
2024/01/08 03:27:46;;;;;;;;;;;2.30;99.90;;;;;;5065187;28;20005;-65
2024/01/08 03:30:14;;;;;;;;;;;2.20;99.90;;;;;;5056006;28;19932;-65
2024/01/08 03:32:41;;;;;;;;;;;2.20;99.90;;;;;;5061368;28;20583;-66
2024/01/08 03:35:09;;;;;;;;;;;2.20;99.90;;;;;;5058660;28;19928;-65
2024/01/08 03:37:37;;;;;;;;;;;2.20;99.90;;;;;;5058950;28;20613;-66
2024/01/08 03:40:04;;;;;;;;;;;2.20;99.90;;;;;;5060671;28;19923;-64
2024/01/08 03:42:31;;;;;;;;;;;2.20;99.90;;;;;;5061340;28;19924;-65
2024/01/08 03:44:58;;;;;;;;;;;2.20;99.90;;;;;;5060410;28;20370;-65
2024/01/08 03:47:25;;;;;;;;;;;2.20;99.90;;;;;;5059298;28;20351;-65
2024/01/08 03:49:51;;;;;;;;;;;2.20;99.90;;;;;;5059883;28;19946;-64
2024/01/08 03:52:19;;;;;;;;;;;2.20;99.90;;;;;;5062441;28;20411;-65
2024/01/08 03:54:46;;;;;;;;;;;2.20;99.90;;;;;;5060569;28;19924;-64
2024/01/08 03:57:12;;;;;;;;;;;2.20;99.90;;;;;;5059302;28;19970;-64
2024/01/08 03:59:39;;;;;;;;;;;2.20;99.90;;;;;;5051422;28;19924;-64
2024/01/08 04:02:05;;;;;;;;;;;2.10;99.90;;;;;;5040979;28;19929;-64
2024/01/08 04:04:32;;;;;;;;;;;2.20;99.90;;;;;;5043641;28;19928;-65
2024/01/08 04:06:58;;;;;;;;;;;2.20;99.90;;;;;;5043373;28;19924;-64
2024/01/08 04:09:26;;;;;;;;;;;2.20;99.90;;;;;;5044396;28;19925;-63
2024/01/08 04:11:53;;;;;;;;;;;2.20;99.90;;;;;;5044142;28;19979;-63
2024/01/08 04:14:20;;;;;;;;;;;2.10;99.90;;;;;;5043183;28;19924;-64
2024/01/08 04:16:46;;;;;;;;;;;2.10;99.90;;;;;;5040861;28;20009;-64
2024/01/08 04:19:13;;;;;;;;;;;2.20;99.90;;;;;;5043310;28;19954;-65
2024/01/08 04:21:39;;;;;;;;;;;2.10;99.90;;;;;;5043218;28;19928;-64
2024/01/08 04:24:06;;;;;;;;;;;2.10;99.90;;;;;;5043604;28;19997;-62
2024/01/08 04:26:34;;;;;;;;;;;2.10;99.90;;;;;;5042979;28;20465;-65
2024/01/08 04:29:00;;;;;;;;;;;2.10;99.90;;;;;;5043216;28;19974;-63
2024/01/08 04:31:28;;;;;;;;;;;2.10;99.90;;;;;;5040218;28;20122;-63
2024/01/08 04:33:55;;;;;;;;;;;2.10;99.90;;;;;;5048206;28;20089;-64
2024/01/08 04:36:21;;;;;;;;;;;2.10;99.90;;;;;;5044709;28;25067;-63
2024/01/08 04:38:48;;;;;;;;;;;2.10;99.90;;;;;;5047329;28;20033;-63
2024/01/08 04:41:18;;;;;;;;;;;2.10;99.90;;;;;;5046994;28;25163;-62
2024/01/08 04:43:46;;;;;;;;;;;2.10;99.90;;;;;;5047245;28;19988;-64
2024/01/08 04:46:12;;;;;;;;;;;2.10;99.90;;;;;;5044461;28;25060;-63
2024/01/08 04:48:38;;;;;;;;;;;2.10;99.90;;;;;;5045801;28;20492;-63
2024/01/08 04:51:05;;;;;;;;;;;2.10;99.90;;;;;;5046526;28;25065;-63
2024/01/08 04:53:33;;;;;;;;;;;2.10;99.90;;;;;;5046386;28;19980;-62
2024/01/08 04:56:00;;;;;;;;;;;2.00;99.90;;;;;;5044728;28;25070;-64
2024/01/08 04:58:26;;;;;;;;;;;2.10;99.90;;;;;;5046531;28;19932;-64
2024/01/08 05:00:54;;;;;;;;;;;2.10;99.90;;;;;;5058534;28;19928;-63
2024/01/08 05:03:21;;;;;;;;;;;2.10;99.90;;;;;;5057111;28;19928;-64
2024/01/08 05:05:47;;;;;;;;;;;2.00;99.90;;;;;;5060995;28;19924;-64
2024/01/08 05:08:14;;;;;;;;;;;1.90;99.90;;;;;;5063467;28;19946;-64
2024/01/08 05:10:40;;;;;;;;;;;2.00;99.90;;;;;;5066392;28;19935;-65
2024/01/08 05:13:07;;;;;;;;;;;2.00;99.90;;;;;;5067237;28;19928;-64
2024/01/08 05:15:34;;;;;;;;;;;2.00;99.90;;;;;;5057765;28;19924;-65
2024/01/08 05:18:02;;;;;;;;;;;2.00;99.90;;;;;;5068379;28;19924;-64
2024/01/08 05:20:30;;;;;;;;;;;2.00;99.90;;;;;;5062081;28;19924;-63
2024/01/08 05:22:57;;;;;;;;;;;2.00;99.90;;;;;;5068579;28;19946;-64
2024/01/08 05:25:23;;;;;;;;;;;2.00;99.90;;;;;;5064113;28;19925;-64
2024/01/08 05:27:50;;;;;;;;;;;2.00;99.90;;;;;;5062498;28;19924;-64
2024/01/08 05:30:16;;;;;;;;;;;2.00;99.90;;;;;;5058228;28;19928;-64
2024/01/08 05:32:43;;;;;;;;;;;2.00;99.90;;;;;;5065367;28;19969;-64
2024/01/08 05:35:11;;;;;;;;;;;2.00;99.90;;;;;;5054706;28;19932;-63
2024/01/08 05:37:37;;;;;;;;;;;1.90;99.90;;;;;;5063274;28;19924;-65
2024/01/08 05:40:04;;;;;;;;;;;1.90;99.90;;;;;;5063854;28;19985;-64
2024/01/08 05:42:30;;;;;;;;;;;1.90;99.90;;;;;;5064608;28;19932;-65
2024/01/08 05:44:57;;;;;;;;;;;1.90;99.90;;;;;;5063013;28;19985;-64
2024/01/08 05:47:23;;;;;;;;;;;1.90;99.90;;;;;;5060051;28;19986;-64
2024/01/08 05:49:50;;;;;;;;;;;1.90;99.90;;;;;;5060475;28;19924;-65
2024/01/08 05:52:18;;;;;;;;;;;2.00;99.90;;;;;;5063740;28;20624;-64
2024/01/08 05:54:44;;;;;;;;;;;1.90;99.90;;;;;;5062835;28;19920;-64
2024/01/08 05:57:11;;;;;;;;;;;1.90;99.90;;;;;;5060644;28;19924;-64
2024/01/08 05:59:37;;;;;;;;;;;1.90;99.90;;;;;;5064133;28;19921;-65
2024/01/08 06:02:04;;;;;;;;;;;1.90;99.90;;;;;;5058535;28;19965;-63
2024/01/08 06:04:31;;;;;;;;;;;1.90;99.90;;;;;;5063241;28;19932;-64
2024/01/08 06:06:57;;;;;;;;;;;1.90;99.90;;;;;;5064435;28;19930;-64
2024/01/08 06:09:25;;;;;;;;;;;1.90;99.90;;;;;;5061322;28;19936;-64
2024/01/08 06:11:51;;;;;;;;;;;1.90;99.90;;;;;;5063522;28;20448;-63
2024/01/08 06:14:18;;;;;;;;;;;1.90;99.90;;;;;;5057923;28;25058;-64
2024/01/08 06:16:44;;;;;;;;;;;1.90;99.90;;;;;;5061814;28;20012;-63
2024/01/08 06:19:11;;;;;;;;;;;1.90;99.90;;;;;;5063127;28;19931;-62
2024/01/08 06:21:37;;;;;;;;;;;1.90;99.90;;;;;;5061345;28;19932;-64
2024/01/08 06:24:04;;;;;;;;;;;1.90;99.90;;;;;;5061512;28;24079;-63
2024/01/08 06:26:32;;;;;;;;;;;1.80;99.90;;;;;;5063074;28;19962;-64
2024/01/08 06:29:00;;;;;;;;;;;1.90;99.90;;;;;;5053762;28;19932;-65
2024/01/08 06:31:27;;;;;;;;;;;1.80;99.90;;;;;;5061450;28;20404;-65
2024/01/08 06:33:53;;;;;;;;;;;1.70;98.60;;;;;;5064092;28;19982;-65
2024/01/08 06:36:20;;;;;;;;;;;1.70;98.90;;;;;;5063695;28;19928;-64
2024/01/08 06:38:47;;;;;;;;;;;1.70;99.30;;;;;;5061206;28;19939;-65
2024/01/08 06:41:13;;;;;;;;;;;1.70;99.50;;;;;;5065033;28;20005;-64
2024/01/08 06:43:41;;;;;;;;;;;1.70;99.60;;;;;;5063544;28;19924;-65
2024/01/08 06:46:07;;;;;;;;;;;1.80;99.80;;;;;;5058988;28;20585;-64
2024/01/08 06:48:34;;;;;;;;;;;1.80;99.80;;;;;;5067337;28;19986;-64
2024/01/08 06:51:00;;;;;;;;;;;1.80;99.90;;;;;;5065054;28;20013;-64
2024/01/08 06:53:27;;;;;;;;;;;1.80;99.90;;;;;;5066838;28;19932;-66
2024/01/08 06:55:53;;;;;;;;;;;1.70;99.90;;;;;;5060130;28;19936;-65
2024/01/08 06:58:20;;;;;;;;;;;1.80;99.90;;;;;;5065062;28;20414;-65
2024/01/08 07:00:48;;;;;;;;;;;1.80;99.90;;;;;;5058493;28;19951;-64
2024/01/08 07:03:15;;;;;;;;;;;1.80;99.90;;;;;;5056112;28;20394;-62
2024/01/08 07:05:43;;;;;;;;;;;1.80;99.90;;;;;;5059966;28;19928;-64
2024/01/08 07:08:10;;;;;;;;;;;1.80;99.90;;;;;;5064015;28;19929;-64
2024/01/08 07:10:36;;;;;;;;;;;1.80;99.90;;;;;;5062742;28;19978;-65
2024/01/08 07:13:03;;;;;;;;;;;1.80;99.90;;;;;;5068708;28;19935;-64
2024/01/08 07:15:36;;;;;;;;;;;1.80;99.90;;;;;;5059669;28;19942;-64
2024/01/08 07:18:04;;;;;;;;;;;1.80;99.90;;;;;;5063186;28;19928;-65
2024/01/08 07:20:30;;;;;;;;;;;1.70;99.90;;;;;;5066081;28;20387;-65
2024/01/08 07:22:57;;;;;;;;;;;1.80;99.90;;;;;;5069255;28;19939;-66
2024/01/08 07:25:24;;;;;;;;;;;1.70;99.90;;;;;;5061701;28;19928;-65
2024/01/08 07:27:50;;;;;;;;;;;1.70;99.90;;;;;;5065503;28;20405;-64
2024/01/08 07:30:18;;;;;;;;;;;1.80;99.90;;;;;;5061533;28;19932;-66
2024/01/08 07:32:44;;;;;;;;;;;1.70;99.90;;;;;;5060679;28;19997;-65
2024/01/08 07:35:13;;;;;;;;;;;1.80;99.90;;;;;;5065828;28;19933;-62
2024/01/08 07:37:39;;;;;;;;;;;1.80;99.90;;;;;;5061303;28;19929;-65
2024/01/08 07:40:07;;;;;;;;;;;1.70;99.90;;;;;;5061260;28;19929;-66
2024/01/08 07:42:33;;;;;;;;;;;1.70;99.90;;;;;;5061921;28;19933;-66
2024/01/08 07:45:00;;;;;;;;;;;1.70;99.90;;;;;;5065315;28;19932;-65
2024/01/08 07:47:27;;;;;;;;;;;1.70;99.90;;;;;;5058985;28;19928;-66
2024/01/08 07:49:54;;;;;;;;;;;1.70;99.90;;;;;;5061520;28;19928;-65
2024/01/08 07:52:22;;;;;;;;;;;1.70;99.90;;;;;;5061156;28;20447;-63
2024/01/08 07:54:48;;;;;;;;;;;1.70;99.90;;;;;;5061379;28;19928;-65
2024/01/08 07:57:15;;;;;;;;;;;1.70;99.90;;;;;;5060054;28;20352;-66
2024/01/08 07:59:42;;;;;;;;;;;1.70;99.90;;;;;;5060977;28;20602;-65
2024/01/08 08:02:08;;;;;;;;;;;1.70;99.90;;;;;;5065732;28;19932;-65
2024/01/08 08:04:35;;;;;;;;;;;1.70;99.90;;;;;;5058026;28;20364;-65
2024/01/08 08:07:01;;;;;;;;;;;1.70;99.90;;;;;;5062152;28;19974;-65
2024/01/08 08:09:29;;;;;;;;;;;1.70;99.90;;;;;;5060595;28;19936;-66
2024/01/08 08:11:56;;;;;;;;;;;1.70;99.90;;;;;;5063303;28;19993;-65
2024/01/08 08:14:22;;;;;;;;;;;1.70;99.90;;;;;;5062598;28;19929;-64
2024/01/08 08:16:49;;;;;;;;;;;1.70;99.90;;;;;;5055013;28;19932;-65
2024/01/08 08:19:15;;;;;;;;;;;1.70;99.90;;;;;;5065150;28;19928;-65
2024/01/08 08:21:42;;;;;;;;;;;1.70;99.90;;;;;;5061775;28;19924;-66
2024/01/08 08:24:08;;;;;;;;;;;1.70;99.90;;;;;;5065893;28;19974;-66
2024/01/08 08:26:36;;;;;;;;;;;1.70;99.90;;;;;;5060496;28;20010;-65
2024/01/08 08:29:03;;;;;;;;;;;1.70;99.90;;;;;;5057271;28;19928;-65
2024/01/08 08:31:30;;;;;;;;;;;1.70;99.90;;;;;;5060999;28;19939;-64
2024/01/08 08:33:57;;;;;;;;;;;1.60;99.90;;;;;;5063124;28;19978;-65
2024/01/08 08:36:23;;;;;;;;;;;1.70;99.90;;;;;;5059753;28;19934;-64
2024/01/08 08:38:50;;;;;;;;;;;1.70;99.90;;;;;;5061690;28;19928;-65
2024/01/08 08:41:16;;;;;;;;;;;1.70;99.90;;;;;;5060164;28;19929;-65
2024/01/08 08:43:44;;;;;;;;;;;1.60;99.90;;;;;;5060443;28;19978;-66
2024/01/08 08:46:10;;;;;;;;;;;1.70;99.90;;;;;;5057384;28;20109;-65
2024/01/08 08:48:37;;;;;;;;;;;1.70;99.90;;;;;;5065260;28;19932;-65
2024/01/08 08:51:05;;;;;;;;;;;1.70;99.90;;;;;;5059301;28;19929;-65
2024/01/08 08:53:31;;;;;;;;;;;1.70;99.90;;;;;;5063731;28;19952;-65
2024/01/08 08:55:58;;;;;;;;;;;1.70;99.90;;;;;;5060127;28;20428;-66
2024/01/08 08:58:24;;;;;;;;;;;1.60;99.90;;;;;;5061140;28;19936;-66
2024/01/08 09:00:52;;;;;;;;;;;1.60;99.90;;;;;;5061889;28;20302;-65
2024/01/08 09:03:19;;;;;;;;;;;1.60;99.90;;;;;;5061378;28;19932;-65
2024/01/08 09:05:45;;;;;;;;;;;1.60;99.90;;;;;;5053541;28;19928;-65
2024/01/08 09:08:12;;;;;;;;;;;1.60;99.90;;;;;;5064738;28;19929;-66
2024/01/08 09:10:38;;;;;;;;;;;1.60;99.90;;;;;;5061783;28;19929;-65
2024/01/08 09:13:05;;;;;;;;;;;1.60;99.90;;;;;;5062728;28;19959;-73
2024/01/08 09:15:31;;;;;;;;;;;1.60;99.90;;;;;;5052873;28;19939;-74
2024/01/08 09:18:00;;;;;;;;;;;1.60;99.90;;;;;;5060488;28;19932;-74
2024/01/08 09:20:27;;;;;;;;;;;1.60;99.90;;;;;;5064188;28;20386;-74
2024/01/08 09:22:53;;;;;;;;;;;1.60;99.90;;;;;;5063011;28;19935;-74
2024/01/08 09:25:20;;;;;;;;;;;1.60;99.90;;;;;;5059579;28;20002;-74
2024/01/08 09:27:47;;;;;;;;;;;1.70;99.90;;;;;;5064237;28;19983;-74
2024/01/08 09:30:13;;;;;;;;;;;1.60;99.90;;;;;;5061435;28;19933;-73
2024/01/08 09:32:40;;;;;;;;;;;1.60;99.90;;;;;;5066606;28;19932;-74
2024/01/08 09:35:08;;;;;;;;;;;1.60;99.90;;;;;;5065026;28;20793;-74
2024/01/08 09:37:34;;;;;;;;;;;1.60;99.90;;;;;;5060185;28;19936;-73
2024/01/08 09:40:01;;;;;;;;;;;1.60;99.90;;;;;;5061534;28;20390;-73
2024/01/08 09:42:28;;;;;;;;;;;1.60;99.90;;;;;;5061222;28;20016;-74
2024/01/08 09:44:55;;;;;;;;;;;1.60;99.90;;;;;;5061831;28;20007;-74
2024/01/08 09:47:22;;;;;;;;;;;1.60;99.90;;;;;;5061058;28;19933;-74
2024/01/08 09:49:48;;;;;;;;;;;1.60;99.90;;;;;;5063128;28;19940;-74
2024/01/08 09:52:17;;;;;;;;;;;1.60;99.90;;;;;;5063471;28;19936;-73
2024/01/08 09:54:44;;;;;;;;;;;1.60;99.90;;;;;;5064100;28;19928;-74
2024/01/08 09:57:11;;;;;;;;;;;1.60;99.90;;;;;;5064700;28;19928;-74
2024/01/08 09:59:37;;;;;;;;;;;1.60;99.90;;;;;;5063095;28;19963;-74
2024/01/08 10:02:04;;;;;;;;;;;1.60;99.90;;;;;;5064297;28;19982;-74
2024/01/08 10:04:31;;;;;;;;;;;1.60;99.90;;;;;;5062250;28;19928;-74
2024/01/08 10:07:04;;;;;;;;;;;1.60;99.90;;;;;;5062085;28;19939;-73
2024/01/08 10:09:32;;;;;;;;;;;1.60;99.90;;;;;;5062156;28;19929;-74
2024/01/08 10:11:59;;;;;;;;;;;1.60;99.90;;;;;;5064104;28;19939;-72
2024/01/08 10:14:26;;;;;;;;;;;1.60;99.90;;;;;;5057140;28;19932;-74
2024/01/08 10:16:54;;;;;;;;;;;1.60;99.90;;;;;;5063211;28;19962;-74
2024/01/08 10:19:23;;;;;;;;;;;1.60;99.90;;;;;;5061725;28;19936;-74
2024/01/08 10:22:06;;;;;;;;;;;1.60;99.90;;;;;;5064068;28;19932;-74
2024/01/08 10:24:34;;;;;;;;;;;1.60;99.90;;;;;;5057156;28;19974;-74
2024/01/08 10:27:00;;;;;;;;;;;1.60;99.90;;;;;;5063792;28;19959;-73
2024/01/08 10:29:27;;;;;;;;;;;1.60;99.90;;;;;;5061798;28;19932;-75
2024/01/08 10:31:53;;;;;;;;;;;1.60;99.90;;;;;;5064501;28;19928;-73
2024/01/08 10:34:21;;;;;;;;;;;1.60;99.90;;;;;;5063576;28;20773;-74
2024/01/08 10:36:48;;;;;;;;;;;1.60;99.90;;;;;;5063822;28;20011;-74
2024/01/08 10:39:16;;;;;;;;;;;1.60;99.90;;;;;;5071222;28;19936;-73
2024/01/08 10:41:43;;;;;;;;;;;1.60;99.90;;;;;;5068389;28;19928;-74
2024/01/08 10:44:10;;;;;;;;;;;1.60;99.90;;;;;;5065886;28;19928;-73
2024/01/08 10:46:41;;;;;;;;;;;1.60;99.90;;;;;;5060268;28;20015;-74
2024/01/08 10:49:12;;;;;;;;;;;1.60;99.90;;;;;;5061384;28;19932;-74
2024/01/08 10:51:42;;;;;;;;;;;1.60;99.90;;;;;;5062318;28;20532;-72
2024/01/08 10:54:08;;;;;;;;;;;1.60;99.90;;;;;;5062986;28;19974;-74
2024/01/08 10:56:36;;;;;;;;;;;1.60;99.90;;;;;;5058059;28;19932;-74
2024/01/08 10:59:04;;;;;;;;;;;1.60;99.90;;;;;;5061018;28;19932;-74
2024/01/08 11:01:31;;;;;;;;;;;1.60;99.90;;;;;;5061595;28;20640;-74
2024/01/08 11:03:58;;;;;;;;;;;1.60;99.90;;;;;;5061699;28;19975;-74
2024/01/08 11:06:25;;;;;;;;;;;1.60;99.70;;;;;;5055952;28;19935;-74
2024/01/08 11:08:52;;;;;;;;;;;1.60;99.60;;;;;;5060364;28;19932;-74
2024/01/08 11:11:18;;;;;;;;;;;1.60;99.60;;;;;;5066106;28;19928;-74
2024/01/08 11:13:45;;;;;;;;;;;1.60;99.60;;;;;;5063404;28;20662;-73
2024/01/08 11:16:14;;;;;;;;;;;1.60;99.50;;;;;;5060871;28;19936;-74
2024/01/08 11:18:40;;;;;;;;;;;1.60;99.40;;;;;;5062349;28;19936;-74
2024/01/08 11:21:07;;;;;;;;;;;1.60;99.30;;;;;;5062726;28;20287;-74
2024/01/08 11:23:36;;;;;;;;;;;1.60;99.30;;;;;;5058734;28;19929;-75
2024/01/08 11:26:04;;;;;;;;;;;1.60;99.30;;;;;;5060782;28;20055;-74
2024/01/08 11:28:31;;;;;;;;;;;1.60;99.10;;;;;;5062066;28;19924;-72
2024/01/08 11:31:27;;;;;;;;;;;1.60;99.00;;;;;;5056011;28;20059;-74
2024/01/08 11:34:03;;;;;;;;;;;1.60;99.10;;;;;;5059202;28;19932;-75
2024/01/08 11:36:37;;;;;;;;;;;1.60;99.00;;;;;;5059475;28;19933;-74
2024/01/08 11:39:11;;;;;;;;;;;1.60;99.00;;;;;;5059763;28;21175;-74
2024/01/08 11:41:38;;;;;;;;;;;1.60;99.00;;;;;;5061532;28;19935;-74
2024/01/08 11:44:04;;;;;;;;;;;1.60;98.80;;;;;;5055191;28;19932;-74
2024/01/08 11:46:34;;;;;;;;;;;1.60;98.80;;;;;;5059421;28;19936;-74
2024/01/08 11:49:02;;;;;;;;;;;1.60;98.90;;;;;;5059774;28;20455;-74
2024/01/08 11:51:29;;;;;;;;;;;1.60;98.90;;;;;;5062062;28;19929;-74
2024/01/08 11:53:58;;;;;;;;;;;1.60;99.00;;;;;;5058791;28;19928;-74
2024/01/08 11:56:24;;;;;;;;;;;1.60;99.10;;;;;;5058098;28;19985;-74
2024/01/08 11:58:51;;;;;;;;;;;1.60;99.00;;;;;;5061354;28;19936;-74
2024/01/08 12:01:18;;;;;;;;;;;1.60;98.80;;;;;;5062214;28;20390;-74
2024/01/08 12:03:46;;;;;;;;;;;1.60;98.70;;;;;;5060815;28;20592;-74
2024/01/08 12:06:12;;;;;;;;;;;1.60;98.60;;;;;;5063226;28;19948;-73
2024/01/08 12:08:39;;;;;;;;;;;1.60;98.40;;;;;;5058744;28;20439;-74
2024/01/08 12:11:05;;;;;;;;;;;1.60;98.40;;;;;;5064776;28;19932;-74
2024/01/08 12:13:32;;;;;;;;;;;1.60;98.70;;;;;;5062737;28;19979;-73
2024/01/08 12:16:01;;;;;;;;;;;1.60;98.80;;;;;;5058675;28;20300;-74
2024/01/08 12:18:27;;;;;;;;;;;1.60;99.00;;;;;;5063459;28;19964;-74
2024/01/08 12:20:55;;;;;;;;;;;1.60;98.80;;;;;;5062295;28;20002;-74
2024/01/08 12:23:22;;;;;;;;;;;1.60;98.60;;;;;;5061296;28;19932;-74
2024/01/08 12:25:49;;;;;;;;;;;1.60;98.50;;;;;;5061705;28;20033;-74
2024/01/08 12:28:15;;;;;;;;;;;1.60;98.30;;;;;;5056682;28;20399;-75
2024/01/08 12:30:42;;;;;;;;;;;1.50;98.00;;;;;;5063912;28;19928;-74
2024/01/08 12:33:10;;;;;;;;;;;1.60;98.00;;;;;;5062124;28;20025;-75
2024/01/08 12:35:37;;;;;;;;;;;1.60;98.30;;;;;;5058499;28;19929;-74
2024/01/08 12:38:05;;;;;;;;;;;1.50;98.20;;;;;;5061368;28;19936;-74
2024/01/08 12:40:32;;;;;;;;;;;1.60;98.10;;;;;;5060828;28;19959;-74
2024/01/08 12:42:59;;;;;;;;;;;1.60;98.20;;;;;;5060123;28;20027;-75
2024/01/08 12:45:26;;;;;;;;;;;1.60;98.20;;;;;;5058830;28;19947;-74
2024/01/08 12:47:52;;;;;;;;;;;1.50;98.00;;;;;;5057950;28;19939;-73
2024/01/08 12:50:19;;;;;;;;;;;1.60;98.00;;;;;;5060022;28;20030;-74
2024/01/08 12:52:45;;;;;;;;;;;1.60;98.00;;;;;;5057888;28;19958;-75
2024/01/08 12:55:13;;;;;;;;;;;1.60;97.80;;;;;;5064845;28;19940;-74
2024/01/08 12:57:40;;;;;;;;;;;1.60;97.60;;;;;;5061006;28;19948;-74
2024/01/08 13:00:07;;;;;;;;;;;1.50;97.50;;;;;;5062071;28;19933;-74
2024/01/08 13:02:34;;;;;;;;;;;1.60;97.70;;;;;;5063524;28;19932;-74
2024/01/08 13:05:03;;;;;;;;;;;1.50;97.90;;;;;;5064140;28;19990;-75
2024/01/08 13:07:30;;;;;;;;;;;1.60;97.80;;;;;;5059683;28;19933;-75
2024/01/08 13:09:56;;;;;;;;;;;1.50;97.70;;;;;;5062357;28;19928;-74
2024/01/08 13:12:24;;;;;;;;;;;1.50;97.90;;;;;;5064845;28;19981;-74
2024/01/08 13:14:51;;;;;;;;;;;1.50;97.80;;;;;;5058680;28;19958;-74
2024/01/08 13:17:17;;;;;;;;;;;1.50;97.70;;;;;;5061926;28;20040;-75
2024/01/08 13:19:44;;;;;;;;;;;1.60;97.60;;;;;;5063115;28;20417;-75
2024/01/08 13:22:11;;;;;;;;;;;1.50;97.50;;;;;;5064711;28;20070;-74
2024/01/08 13:24:38;;;;;;;;;;;1.60;97.40;;;;;;5063308;28;19929;-74
2024/01/08 13:27:11;;;;;;;;;;;1.50;97.30;;;;;;5063859;28;19939;-74
2024/01/08 13:29:39;;;;;;;;;;;1.50;97.30;;;;;;5061955;28;19951;-75
2024/01/08 13:32:07;;;;;;;;;;;1.50;97.20;;;;;;5062444;28;20046;-74
2024/01/08 13:34:34;;;;;;;;;;;1.60;97.20;;;;;;5062917;28;19940;-75
2024/01/08 13:37:00;;;;;;;;;;;1.50;97.30;;;;;;5056770;28;20448;-74
2024/01/08 13:39:29;;;;;;;;;;;1.50;97.30;;;;;;5061873;28;19936;-74
2024/01/08 13:41:55;;;;;;;;;;;1.50;97.10;;;;;;5062913;28;20030;-74
2024/01/08 13:44:22;;;;;;;;;;;1.50;96.90;;;;;;5062752;28;20402;-74
2024/01/08 13:46:50;;;;;;;;;;;1.50;96.90;;;;;;5057562;28;20039;-72
2024/01/08 13:49:17;;;;;;;;;;;1.50;97.00;;;;;;5061063;28;20047;-74
2024/01/08 13:51:43;;;;;;;;;;;1.50;96.90;;;;;;5062817;28;19936;-74
2024/01/08 13:54:10;;;;;;;;;;;1.50;96.80;;;;;;5062996;28;19932;-74
2024/01/08 13:56:36;;;;;;;;;;;1.50;96.70;;;;;;5060219;28;20611;-74
2024/01/08 13:59:05;;;;;;;;;;;1.50;96.70;;;;;;5062097;28;20468;-66
2024/01/08 14:01:32;;;;;;;;;;;1.50;96.60;;;;;;5063799;28;19934;-66
2024/01/08 14:04:00;;;;;;;;;;;1.50;96.70;;;;;;5063314;28;19932;-66
2024/01/08 14:06:26;;;;;;;;;;;1.50;96.80;;;;;;5061982;28;19950;-66
2024/01/08 14:08:53;;;;;;;;;;;1.50;96.90;;;;;;5061032;28;19932;-66
2024/01/08 14:11:19;;;;;;;;;;;1.50;96.90;;;;;;5062031;28;21283;-66
2024/01/08 14:13:46;;;;;;;;;;;1.50;96.70;;;;;;5064385;28;19932;-67
2024/01/08 14:16:12;;;;;;;;;;;1.50;96.70;;;;;;5063775;28;19928;-66
2024/01/08 14:18:40;;;;;;;;;;;1.50;96.80;;;;;;5065356;28;19942;-66
2024/01/08 14:21:08;;;;;;;;;;;1.50;96.90;;;;;;5065793;28;19928;-66
2024/01/08 14:23:35;;;;;;;;;;;1.50;96.90;;;;;;5061938;28;19928;-66
2024/01/08 14:26:03;;;;;;;;;;;1.50;97.00;;;;;;5065190;28;19981;-66
2024/01/08 14:28:30;;;;;;;;;;;1.50;96.80;;;;;;5063109;28;19933;-65
2024/01/08 14:30:56;;;;;;;;;;;1.50;96.70;;;;;;5064594;28;20391;-66
2024/01/08 14:33:24;;;;;;;;;;;1.50;96.90;;;;;;5062502;28;19928;-66
2024/01/08 14:35:50;;;;;;;;;;;1.50;96.80;;;;;;5062115;28;20015;-66
2024/01/08 14:38:19;;;;;;;;;;;1.40;94.00;;;;;;5062233;28;19928;-64
2024/01/08 14:40:45;;;;;;;;;;;1.40;94.20;;;;;;5059925;28;19928;-65
2024/01/08 14:43:12;;;;;;;;;;;1.40;94.60;;;;;;5048821;28;20726;-66
2024/01/08 14:45:38;;;;;;;;;;;1.40;95.10;;;;;;5057083;28;19978;-65